sensor_id;sensor_type;location;lat;lon;timestamp;P1;durP1;ratioP1;P2;durP2;ratioP2
51296;SDS011;37380;45.186;9.792;2023-05-29T00:01:48;34.20;;;27.83;;
51296;SDS011;37380;45.186;9.792;2023-05-29T00:04:42;36.42;;;29.67;;
51296;SDS011;37380;45.186;9.792;2023-05-29T00:07:09;37.58;;;29.98;;
51296;SDS011;37380;45.186;9.792;2023-05-29T00:09:37;41.58;;;30.73;;
51296;SDS011;37380;45.186;9.792;2023-05-29T00:12:04;36.72;;;30.95;;
51296;SDS011;37380;45.186;9.792;2023-05-29T00:14:32;34.92;;;30.02;;
51296;SDS011;37380;45.186;9.792;2023-05-29T00:16:59;37.53;;;28.58;;
51296;SDS011;37380;45.186;9.792;2023-05-29T00:19:26;33.22;;;27.92;;
51296;SDS011;37380;45.186;9.792;2023-05-29T00:21:54;39.70;;;27.98;;
51296;SDS011;37380;45.186;9.792;2023-05-29T00:24:23;32.30;;;26.52;;
51296;SDS011;37380;45.186;9.792;2023-05-29T00:26:53;34.70;;;27.15;;
51296;SDS011;37380;45.186;9.792;2023-05-29T00:29:22;34.08;;;28.15;;
51296;SDS011;37380;45.186;9.792;2023-05-29T00:31:49;36.40;;;30.90;;
51296;SDS011;37380;45.186;9.792;2023-05-29T00:34:22;44.60;;;30.30;;
51296;SDS011;37380;45.186;9.792;2023-05-29T00:36:53;37.45;;;30.58;;
51296;SDS011;37380;45.186;9.792;2023-05-29T00:39:22;37.25;;;29.08;;
51296;SDS011;37380;45.186;9.792;2023-05-29T00:41:49;32.72;;;29.02;;
51296;SDS011;37380;45.186;9.792;2023-05-29T00:44:18;32.20;;;27.85;;
51296;SDS011;37380;45.186;9.792;2023-05-29T00:46:49;33.20;;;29.33;;
51296;SDS011;37380;45.186;9.792;2023-05-29T00:49:20;39.70;;;29.80;;
51296;SDS011;37380;45.186;9.792;2023-05-29T00:51:49;35.58;;;29.67;;
51296;SDS011;37380;45.186;9.792;2023-05-29T00:54:20;35.67;;;27.52;;
51296;SDS011;37380;45.186;9.792;2023-05-29T00:56:50;34.88;;;29.90;;
51296;SDS011;37380;45.186;9.792;2023-05-29T00:59:17;38.25;;;30.52;;
51296;SDS011;37380;45.186;9.792;2023-05-29T01:01:54;36.90;;;30.00;;
51296;SDS011;37380;45.186;9.792;2023-05-29T01:04:56;34.90;;;28.30;;
51296;SDS011;37380;45.186;9.792;2023-05-29T01:07:52;38.30;;;30.23;;
51296;SDS011;37380;45.186;9.792;2023-05-29T01:10:20;34.67;;;29.80;;
51296;SDS011;37380;45.186;9.792;2023-05-29T01:13:11;34.42;;;29.58;;
51296;SDS011;37380;45.186;9.792;2023-05-29T01:15:52;44.47;;;27.88;;
51296;SDS011;37380;45.186;9.792;2023-05-29T01:26:39;41.40;;;34.88;;
51296;SDS011;37380;45.186;9.792;2023-05-29T01:29:09;49.60;;;34.25;;
51296;SDS011;37380;45.186;9.792;2023-05-29T01:31:40;44.05;;;33.55;;
51296;SDS011;37380;45.186;9.792;2023-05-29T01:34:09;37.50;;;33.42;;
51296;SDS011;37380;45.186;9.792;2023-05-29T01:36:37;38.90;;;31.30;;
51296;SDS011;37380;45.186;9.792;2023-05-29T01:39:04;37.78;;;32.42;;
51296;SDS011;37380;45.186;9.792;2023-05-29T01:41:32;37.47;;;31.63;;
51296;SDS011;37380;45.186;9.792;2023-05-29T01:44:02;36.83;;;30.70;;
51296;SDS011;37380;45.186;9.792;2023-05-29T01:49:07;39.83;;;33.45;;
51296;SDS011;37380;45.186;9.792;2023-05-29T01:51:35;41.30;;;35.25;;
51296;SDS011;37380;45.186;9.792;2023-05-29T01:54:03;40.35;;;36.05;;
51296;SDS011;37380;45.186;9.792;2023-05-29T01:56:31;41.55;;;35.50;;
51296;SDS011;37380;45.186;9.792;2023-05-29T01:59:00;44.55;;;36.17;;
51296;SDS011;37380;45.186;9.792;2023-05-29T02:01:38;51.45;;;37.90;;
51296;SDS011;37380;45.186;9.792;2023-05-29T02:04:33;44.42;;;38.42;;
51296;SDS011;37380;45.186;9.792;2023-05-29T02:07:01;44.35;;;38.25;;
51296;SDS011;37380;45.186;9.792;2023-05-29T02:09:29;41.13;;;36.35;;
51296;SDS011;37380;45.186;9.792;2023-05-29T02:11:57;46.58;;;37.22;;
51296;SDS011;37380;45.186;9.792;2023-05-29T02:14:24;40.63;;;36.22;;
51296;SDS011;37380;45.186;9.792;2023-05-29T02:16:55;43.03;;;35.40;;
51296;SDS011;37380;45.186;9.792;2023-05-29T02:19:25;53.33;;;35.42;;
51296;SDS011;37380;45.186;9.792;2023-05-29T02:21:53;42.38;;;37.70;;
51296;SDS011;37380;45.186;9.792;2023-05-29T02:24:22;40.50;;;36.22;;
51296;SDS011;37380;45.186;9.792;2023-05-29T02:26:49;44.72;;;34.38;;
51296;SDS011;37380;45.186;9.792;2023-05-29T02:29:17;41.60;;;35.65;;
51296;SDS011;37380;45.186;9.792;2023-05-29T02:31:45;44.95;;;36.25;;
51296;SDS011;37380;45.186;9.792;2023-05-29T02:34:12;41.95;;;36.38;;
51296;SDS011;37380;45.186;9.792;2023-05-29T02:36:41;38.63;;;34.63;;
51296;SDS011;37380;45.186;9.792;2023-05-29T02:39:09;43.88;;;36.75;;
51296;SDS011;37380;45.186;9.792;2023-05-29T02:41:37;38.08;;;33.50;;
51296;SDS011;37380;45.186;9.792;2023-05-29T02:44:04;41.03;;;34.92;;
51296;SDS011;37380;45.186;9.792;2023-05-29T02:46:32;45.17;;;37.45;;
51296;SDS011;37380;45.186;9.792;2023-05-29T02:49:00;40.08;;;35.42;;
51296;SDS011;37380;45.186;9.792;2023-05-29T02:51:28;44.13;;;36.97;;
51296;SDS011;37380;45.186;9.792;2023-05-29T02:53:55;45.92;;;35.90;;
51296;SDS011;37380;45.186;9.792;2023-05-29T02:56:22;38.55;;;34.47;;
51296;SDS011;37380;45.186;9.792;2023-05-29T02:58:50;37.80;;;33.65;;
51296;SDS011;37380;45.186;9.792;2023-05-29T03:01:24;40.53;;;36.20;;
51296;SDS011;37380;45.186;9.792;2023-05-29T03:04:28;40.05;;;33.80;;
51296;SDS011;37380;45.186;9.792;2023-05-29T03:09:55;39.20;;;32.10;;
51296;SDS011;37380;45.186;9.792;2023-05-29T03:12:26;36.33;;;32.47;;
51296;SDS011;37380;45.186;9.792;2023-05-29T03:14:56;36.92;;;32.70;;
51296;SDS011;37380;45.186;9.792;2023-05-29T03:17:25;37.67;;;32.20;;
51296;SDS011;37380;45.186;9.792;2023-05-29T03:19:52;37.50;;;33.63;;
51296;SDS011;37380;45.186;9.792;2023-05-29T03:22:20;42.40;;;35.03;;
51296;SDS011;37380;45.186;9.792;2023-05-29T03:24:47;44.92;;;33.67;;
51296;SDS011;37380;45.186;9.792;2023-05-29T03:27:14;40.92;;;34.05;;
51296;SDS011;37380;45.186;9.792;2023-05-29T03:29:45;41.70;;;34.30;;
51296;SDS011;37380;45.186;9.792;2023-05-29T03:32:12;41.95;;;36.28;;
51296;SDS011;37380;45.186;9.792;2023-05-29T03:34:40;43.03;;;34.88;;
51296;SDS011;37380;45.186;9.792;2023-05-29T03:37:07;40.05;;;34.72;;
51296;SDS011;37380;45.186;9.792;2023-05-29T03:39:35;43.55;;;37.38;;
51296;SDS011;37380;45.186;9.792;2023-05-29T03:42:06;49.40;;;37.38;;
51296;SDS011;37380;45.186;9.792;2023-05-29T03:44:33;44.22;;;37.30;;
51296;SDS011;37380;45.186;9.792;2023-05-29T03:47:02;41.53;;;36.67;;
51296;SDS011;37380;45.186;9.792;2023-05-29T03:49:34;43.15;;;38.60;;
51296;SDS011;37380;45.186;9.792;2023-05-29T03:52:02;47.88;;;37.03;;
51296;SDS011;37380;45.186;9.792;2023-05-29T03:54:31;47.58;;;33.78;;
51296;SDS011;37380;45.186;9.792;2023-05-29T03:57:00;43.88;;;35.05;;
51296;SDS011;37380;45.186;9.792;2023-05-29T03:59:31;41.00;;;36.63;;
51296;SDS011;37380;45.186;9.792;2023-05-29T04:02:05;38.17;;;33.92;;
51296;SDS011;37380;45.186;9.792;2023-05-29T04:05:06;41.38;;;36.83;;
51296;SDS011;37380;45.186;9.792;2023-05-29T04:08:01;47.70;;;34.05;;
51296;SDS011;37380;45.186;9.792;2023-05-29T04:10:41;40.63;;;36.28;;
51296;SDS011;37380;45.186;9.792;2023-05-29T04:13:10;41.42;;;36.78;;
51296;SDS011;37380;45.186;9.792;2023-05-29T04:15:38;41.45;;;33.50;;
51296;SDS011;37380;45.186;9.792;2023-05-29T04:18:05;43.70;;;35.35;;
51296;SDS011;37380;45.186;9.792;2023-05-29T04:20:33;48.25;;;38.30;;
51296;SDS011;37380;45.186;9.792;2023-05-29T04:23:00;47.97;;;37.60;;
51296;SDS011;37380;45.186;9.792;2023-05-29T04:25:27;47.03;;;35.95;;
51296;SDS011;37380;45.186;9.792;2023-05-29T04:27:55;44.72;;;35.75;;
51296;SDS011;37380;45.186;9.792;2023-05-29T04:30:22;53.53;;;38.53;;
51296;SDS011;37380;45.186;9.792;2023-05-29T04:32:49;58.92;;;38.58;;
51296;SDS011;37380;45.186;9.792;2023-05-29T04:35:21;44.13;;;37.08;;
51296;SDS011;37380;45.186;9.792;2023-05-29T04:37:55;50.38;;;34.22;;
51296;SDS011;37380;45.186;9.792;2023-05-29T04:40:27;42.13;;;34.25;;
51296;SDS011;37380;45.186;9.792;2023-05-29T04:42:54;40.00;;;33.83;;
51296;SDS011;37380;45.186;9.792;2023-05-29T04:45:23;52.13;;;33.55;;
51296;SDS011;37380;45.186;9.792;2023-05-29T04:47:59;36.13;;;32.35;;
51296;SDS011;37380;45.186;9.792;2023-05-29T04:50:28;41.70;;;31.48;;
51296;SDS011;37380;45.186;9.792;2023-05-29T04:52:59;38.80;;;29.92;;
51296;SDS011;37380;45.186;9.792;2023-05-29T04:55:27;42.58;;;32.08;;
51296;SDS011;37380;45.186;9.792;2023-05-29T04:58:01;64.07;;;32.42;;
51296;SDS011;37380;45.186;9.792;2023-05-29T05:00:56;41.53;;;29.73;;
51296;SDS011;37380;45.186;9.792;2023-05-29T05:03:29;43.15;;;27.95;;
51296;SDS011;37380;45.186;9.792;2023-05-29T05:05:58;30.00;;;26.88;;
51296;SDS011;37380;45.186;9.792;2023-05-29T05:08:27;32.65;;;24.48;;
51296;SDS011;37380;45.186;9.792;2023-05-29T05:11:04;33.70;;;26.48;;
51296;SDS011;37380;45.186;9.792;2023-05-29T05:14:08;36.80;;;25.75;;
51296;SDS011;37380;45.186;9.792;2023-05-29T05:17:03;35.10;;;23.70;;
51296;SDS011;37380;45.186;9.792;2023-05-29T05:19:31;30.27;;;24.58;;
51296;SDS011;37380;45.186;9.792;2023-05-29T05:21:59;30.70;;;25.70;;
51296;SDS011;37380;45.186;9.792;2023-05-29T05:24:26;26.83;;;24.08;;
51296;SDS011;37380;45.186;9.792;2023-05-29T05:26:56;30.23;;;23.38;;
51296;SDS011;37380;45.186;9.792;2023-05-29T05:29:25;31.58;;;25.95;;
51296;SDS011;37380;45.186;9.792;2023-05-29T05:31:56;32.50;;;26.48;;
51296;SDS011;37380;45.186;9.792;2023-05-29T05:34:24;37.40;;;27.55;;
51296;SDS011;37380;45.186;9.792;2023-05-29T05:37:05;33.22;;;28.60;;
51296;SDS011;37380;45.186;9.792;2023-05-29T05:40:02;32.77;;;27.30;;
51296;SDS011;37380;45.186;9.792;2023-05-29T05:42:35;31.77;;;25.93;;
51296;SDS011;37380;45.186;9.792;2023-05-29T05:45:12;29.58;;;26.50;;
51296;SDS011;37380;45.186;9.792;2023-05-29T05:47:42;30.13;;;26.27;;
51296;SDS011;37380;45.186;9.792;2023-05-29T05:50:11;24.95;;;21.85;;
51296;SDS011;37380;45.186;9.792;2023-05-29T05:52:38;26.75;;;23.08;;
51296;SDS011;37380;45.186;9.792;2023-05-29T05:55:10;26.05;;;20.00;;
51296;SDS011;37380;45.186;9.792;2023-05-29T05:57:46;24.95;;;19.25;;
51296;SDS011;37380;45.186;9.792;2023-05-29T06:00:47;34.00;;;21.08;;
51296;SDS011;37380;45.186;9.792;2023-05-29T06:03:41;19.73;;;16.80;;
51296;SDS011;37380;45.186;9.792;2023-05-29T06:06:09;18.13;;;16.25;;
51296;SDS011;37380;45.186;9.792;2023-05-29T06:08:39;20.92;;;16.80;;
51296;SDS011;37380;45.186;9.792;2023-05-29T06:11:08;24.60;;;14.98;;
51296;SDS011;37380;45.186;9.792;2023-05-29T06:13:40;19.55;;;15.38;;
51296;SDS011;37380;45.186;9.792;2023-05-29T06:16:13;17.10;;;14.35;;
51296;SDS011;37380;45.186;9.792;2023-05-29T06:18:41;25.27;;;14.85;;
51296;SDS011;37380;45.186;9.792;2023-05-29T06:21:08;25.25;;;16.92;;
51296;SDS011;37380;45.186;9.792;2023-05-29T06:23:43;27.50;;;14.40;;
51296;SDS011;37380;45.186;9.792;2023-05-29T06:26:11;23.45;;;15.10;;
51296;SDS011;37380;45.186;9.792;2023-05-29T06:28:39;15.43;;;13.95;;
51296;SDS011;37380;45.186;9.792;2023-05-29T06:31:07;15.23;;;13.52;;
51296;SDS011;37380;45.186;9.792;2023-05-29T06:33:35;23.25;;;13.65;;
51296;SDS011;37380;45.186;9.792;2023-05-29T06:36:12;23.73;;;13.95;;
51296;SDS011;37380;45.186;9.792;2023-05-29T06:39:16;20.05;;;15.48;;
51296;SDS011;37380;45.186;9.792;2023-05-29T06:42:10;24.33;;;16.35;;
51296;SDS011;37380;45.186;9.792;2023-05-29T06:44:41;16.10;;;14.48;;
51296;SDS011;37380;45.186;9.792;2023-05-29T06:47:09;20.42;;;15.55;;
51296;SDS011;37380;45.186;9.792;2023-05-29T06:49:36;27.83;;;16.55;;
51296;SDS011;37380;45.186;9.792;2023-05-29T06:52:04;31.95;;;16.60;;
51296;SDS011;37380;45.186;9.792;2023-05-29T06:55:02;27.00;;;14.52;;
51296;SDS011;37380;45.186;9.792;2023-05-29T06:57:37;20.25;;;15.07;;
51296;SDS011;37380;45.186;9.792;2023-05-29T07:00:43;29.15;;;15.30;;
51296;SDS011;37380;45.186;9.792;2023-05-29T07:03:37;23.52;;;15.88;;
51296;SDS011;37380;45.186;9.792;2023-05-29T07:06:10;16.65;;;14.90;;
51296;SDS011;37380;45.186;9.792;2023-05-29T07:08:37;19.77;;;13.10;;
51296;SDS011;37380;45.186;9.792;2023-05-29T07:11:12;17.13;;;13.82;;
51296;SDS011;37380;45.186;9.792;2023-05-29T07:14:13;18.52;;;14.65;;
51296;SDS011;37380;45.186;9.792;2023-05-29T07:17:12;19.17;;;15.60;;
51296;SDS011;37380;45.186;9.792;2023-05-29T07:19:40;20.20;;;13.02;;
51296;SDS011;37380;45.186;9.792;2023-05-29T07:22:09;17.27;;;13.30;;
51296;SDS011;37380;45.186;9.792;2023-05-29T07:24:37;19.40;;;16.17;;
51296;SDS011;37380;45.186;9.792;2023-05-29T07:27:05;16.48;;;14.70;;
51296;SDS011;37380;45.186;9.792;2023-05-29T07:29:34;15.80;;;14.10;;
51296;SDS011;37380;45.186;9.792;2023-05-29T07:32:01;14.68;;;13.10;;
51296;SDS011;37380;45.186;9.792;2023-05-29T07:34:30;20.60;;;13.82;;
51296;SDS011;37380;45.186;9.792;2023-05-29T07:39:31;21.73;;;14.55;;
51296;SDS011;37380;45.186;9.792;2023-05-29T07:42:12;18.42;;;14.35;;
51296;SDS011;37380;45.186;9.792;2023-05-29T07:44:42;15.13;;;13.57;;
51296;SDS011;37380;45.186;9.792;2023-05-29T07:47:09;17.05;;;13.52;;
51296;SDS011;37380;45.186;9.792;2023-05-29T07:49:47;17.88;;;14.45;;
51296;SDS011;37380;45.186;9.792;2023-05-29T07:52:20;15.60;;;13.10;;
51296;SDS011;37380;45.186;9.792;2023-05-29T07:54:48;13.63;;;12.40;;
51296;SDS011;37380;45.186;9.792;2023-05-29T07:57:22;19.40;;;14.40;;
51296;SDS011;37380;45.186;9.792;2023-05-29T08:00:26;18.38;;;13.60;;
51296;SDS011;37380;45.186;9.792;2023-05-29T08:03:20;21.77;;;13.68;;
51296;SDS011;37380;45.186;9.792;2023-05-29T08:06:17;23.27;;;15.65;;
51296;SDS011;37380;45.186;9.792;2023-05-29T08:08:46;15.18;;;13.20;;
51296;SDS011;37380;45.186;9.792;2023-05-29T08:11:18;13.68;;;12.18;;
51296;SDS011;37380;45.186;9.792;2023-05-29T08:13:47;14.30;;;11.93;;
51296;SDS011;37380;45.186;9.792;2023-05-29T08:16:16;13.88;;;10.52;;
51296;SDS011;37380;45.186;9.792;2023-05-29T08:18:43;15.70;;;10.35;;
51296;SDS011;37380;45.186;9.792;2023-05-29T08:21:11;16.90;;;11.73;;
51296;SDS011;37380;45.186;9.792;2023-05-29T08:23:39;28.65;;;11.05;;
51296;SDS011;37380;45.186;9.792;2023-05-29T08:26:07;11.68;;;10.48;;
51296;SDS011;37380;45.186;9.792;2023-05-29T08:28:35;16.75;;;11.02;;
51296;SDS011;37380;45.186;9.792;2023-05-29T08:31:08;19.02;;;12.35;;
51296;SDS011;37380;45.186;9.792;2023-05-29T08:33:35;16.42;;;11.73;;
51296;SDS011;37380;45.186;9.792;2023-05-29T08:36:04;23.17;;;13.30;;
51296;SDS011;37380;45.186;9.792;2023-05-29T08:38:31;19.58;;;14.32;;
51296;SDS011;37380;45.186;9.792;2023-05-29T08:41:03;20.30;;;14.05;;
51296;SDS011;37380;45.186;9.792;2023-05-29T08:43:35;17.83;;;13.13;;
51296;SDS011;37380;45.186;9.792;2023-05-29T08:46:04;16.00;;;14.30;;
51296;SDS011;37380;45.186;9.792;2023-05-29T08:48:33;15.50;;;13.90;;
51296;SDS011;37380;45.186;9.792;2023-05-29T08:51:07;15.23;;;13.85;;
51296;SDS011;37380;45.186;9.792;2023-05-29T08:53:37;21.80;;;15.27;;
51296;SDS011;37380;45.186;9.792;2023-05-29T08:56:08;19.88;;;14.10;;
51296;SDS011;37380;45.186;9.792;2023-05-29T08:59:13;20.80;;;14.75;;
51296;SDS011;37380;45.186;9.792;2023-05-29T09:01:44;18.10;;;15.15;;
51296;SDS011;37380;45.186;9.792;2023-05-29T09:04:12;20.50;;;15.85;;
51296;SDS011;37380;45.186;9.792;2023-05-29T09:06:44;47.47;;;17.90;;
51296;SDS011;37380;45.186;9.792;2023-05-29T09:09:16;19.40;;;14.80;;
51296;SDS011;37380;45.186;9.792;2023-05-29T09:11:55;20.02;;;15.55;;
51296;SDS011;37380;45.186;9.792;2023-05-29T09:14:40;17.58;;;14.52;;
51296;SDS011;37380;45.186;9.792;2023-05-29T09:21:27;17.75;;;15.35;;
51296;SDS011;37380;45.186;9.792;2023-05-29T09:24:02;14.80;;;13.30;;
51296;SDS011;37380;45.186;9.792;2023-05-29T09:26:30;27.20;;;14.95;;
51296;SDS011;37380;45.186;9.792;2023-05-29T09:28:58;18.60;;;14.77;;
51296;SDS011;37380;45.186;9.792;2023-05-29T09:31:25;20.85;;;15.20;;
51296;SDS011;37380;45.186;9.792;2023-05-29T09:33:52;18.50;;;16.50;;
51296;SDS011;37380;45.186;9.792;2023-05-29T09:36:20;19.17;;;14.63;;
51296;SDS011;37380;45.186;9.792;2023-05-29T09:38:50;19.20;;;17.00;;
51296;SDS011;37380;45.186;9.792;2023-05-29T09:41:25;25.50;;;16.88;;
51296;SDS011;37380;45.186;9.792;2023-05-29T09:43:53;28.00;;;16.90;;
51296;SDS011;37380;45.186;9.792;2023-05-29T09:46:21;17.98;;;15.30;;
51296;SDS011;37380;45.186;9.792;2023-05-29T09:48:48;20.90;;;15.95;;
51296;SDS011;37380;45.186;9.792;2023-05-29T09:51:20;21.77;;;16.48;;
51296;SDS011;37380;45.186;9.792;2023-05-29T09:53:52;26.20;;;15.77;;
51296;SDS011;37380;45.186;9.792;2023-05-29T09:56:29;18.52;;;14.63;;
51296;SDS011;37380;45.186;9.792;2023-05-29T09:59:25;16.30;;;14.60;;
51296;SDS011;37380;45.186;9.792;2023-05-29T10:02:19;23.23;;;15.38;;
51296;SDS011;37380;45.186;9.792;2023-05-29T10:04:53;25.67;;;17.23;;
51296;SDS011;37380;45.186;9.792;2023-05-29T10:07:49;20.58;;;16.33;;
51296;SDS011;37380;45.186;9.792;2023-05-29T10:10:28;17.20;;;14.77;;
51296;SDS011;37380;45.186;9.792;2023-05-29T10:12:56;18.40;;;15.32;;
51296;SDS011;37380;45.186;9.792;2023-05-29T10:15:24;19.45;;;14.77;;
51296;SDS011;37380;45.186;9.792;2023-05-29T10:17:57;22.75;;;16.52;;
51296;SDS011;37380;45.186;9.792;2023-05-29T10:20:29;18.40;;;15.65;;
51296;SDS011;37380;45.186;9.792;2023-05-29T10:22:59;23.45;;;16.67;;
51296;SDS011;37380;45.186;9.792;2023-05-29T10:25:27;17.73;;;15.77;;
51296;SDS011;37380;45.186;9.792;2023-05-29T10:27:57;18.83;;;16.25;;
51296;SDS011;37380;45.186;9.792;2023-05-29T10:30:39;16.77;;;14.07;;
51296;SDS011;37380;45.186;9.792;2023-05-29T10:36:25;17.98;;;14.45;;
51296;SDS011;37380;45.186;9.792;2023-05-29T10:39:09;25.88;;;16.92;;
51296;SDS011;37380;45.186;9.792;2023-05-29T10:42:57;29.33;;;16.92;;
51296;SDS011;37380;45.186;9.792;2023-05-29T10:53:23;15.10;;;13.32;;
51296;SDS011;37380;45.186;9.792;2023-05-29T10:56:04;19.45;;;14.18;;
51296;SDS011;37380;45.186;9.792;2023-05-29T10:59:10;23.45;;;16.45;;
51296;SDS011;37380;45.186;9.792;2023-05-29T11:02:04;25.67;;;15.63;;
51296;SDS011;37380;45.186;9.792;2023-05-29T11:04:34;16.42;;;14.82;;
51296;SDS011;37380;45.186;9.792;2023-05-29T11:07:04;24.52;;;16.00;;
51296;SDS011;37380;45.186;9.792;2023-05-29T11:09:33;21.83;;;15.68;;
51296;SDS011;37380;45.186;9.792;2023-05-29T11:12:10;18.13;;;14.70;;
51296;SDS011;37380;45.186;9.792;2023-05-29T11:15:02;20.67;;;14.73;;
51296;SDS011;37380;45.186;9.792;2023-05-29T11:20:06;19.20;;;15.32;;
51296;SDS011;37380;45.186;9.792;2023-05-29T11:22:53;23.58;;;16.98;;
51296;SDS011;37380;45.186;9.792;2023-05-29T11:25:24;25.73;;;15.75;;
51296;SDS011;37380;45.186;9.792;2023-05-29T11:27:52;22.38;;;15.05;;
51296;SDS011;37380;45.186;9.792;2023-05-29T11:30:20;24.90;;;14.50;;
51296;SDS011;37380;45.186;9.792;2023-05-29T11:32:48;17.63;;;13.45;;
51296;SDS011;37380;45.186;9.792;2023-05-29T11:35:23;17.90;;;13.10;;
51296;SDS011;37380;45.186;9.792;2023-05-29T11:38:17;15.35;;;13.80;;
51296;SDS011;37380;45.186;9.792;2023-05-29T11:40:52;15.15;;;13.45;;
51296;SDS011;37380;45.186;9.792;2023-05-29T11:44:01;19.33;;;13.80;;
51296;SDS011;37380;45.186;9.792;2023-05-29T11:47:03;17.88;;;14.38;;
51296;SDS011;37380;45.186;9.792;2023-05-29T11:49:33;17.10;;;15.10;;
51296;SDS011;37380;45.186;9.792;2023-05-29T11:52:12;27.20;;;14.93;;
51296;SDS011;37380;45.186;9.792;2023-05-29T11:55:09;20.48;;;14.15;;
51296;SDS011;37380;45.186;9.792;2023-05-29T11:57:37;21.65;;;12.77;;
51296;SDS011;37380;45.186;9.792;2023-05-29T12:00:04;19.08;;;12.73;;
51296;SDS011;37380;45.186;9.792;2023-05-29T12:02:35;21.13;;;12.52;;
51296;SDS011;37380;45.186;9.792;2023-05-29T12:05:03;14.48;;;12.60;;
51296;SDS011;37380;45.186;9.792;2023-05-29T12:08:08;26.70;;;13.05;;
51296;SDS011;37380;45.186;9.792;2023-05-29T12:11:02;13.52;;;11.80;;
51296;SDS011;37380;45.186;9.792;2023-05-29T12:13:30;19.75;;;12.73;;
51296;SDS011;37380;45.186;9.792;2023-05-29T12:15:57;22.90;;;12.77;;
51296;SDS011;37380;45.186;9.792;2023-05-29T12:18:28;22.48;;;13.18;;
51296;SDS011;37380;45.186;9.792;2023-05-29T12:20:57;15.70;;;13.05;;
51296;SDS011;37380;45.186;9.792;2023-05-29T12:23:25;16.52;;;12.85;;
51296;SDS011;37380;45.186;9.792;2023-05-29T12:25:54;19.13;;;12.25;;
51296;SDS011;37380;45.186;9.792;2023-05-29T12:28:22;16.27;;;12.02;;
51296;SDS011;37380;45.186;9.792;2023-05-29T12:30:49;14.75;;;12.70;;
51296;SDS011;37380;45.186;9.792;2023-05-29T12:33:27;14.32;;;12.93;;
51296;SDS011;37380;45.186;9.792;2023-05-29T12:36:05;14.18;;;12.20;;
51296;SDS011;37380;45.186;9.792;2023-05-29T12:38:41;14.88;;;10.57;;
51296;SDS011;37380;45.186;9.792;2023-05-29T12:41:28;11.98;;;10.05;;
51296;SDS011;37380;45.186;9.792;2023-05-29T12:44:30;17.33;;;12.60;;
51296;SDS011;37380;45.186;9.792;2023-05-29T12:47:31;12.77;;;9.77;;
51296;SDS011;37380;45.186;9.792;2023-05-29T12:50:35;16.15;;;11.80;;
51296;SDS011;37380;45.186;9.792;2023-05-29T12:53:39;10.45;;;8.82;;
51296;SDS011;37380;45.186;9.792;2023-05-29T12:56:19;16.52;;;11.80;;
51296;SDS011;37380;45.186;9.792;2023-05-29T12:58:50;25.48;;;9.57;;
51296;SDS011;37380;45.186;9.792;2023-05-29T13:01:18;22.98;;;12.30;;
51296;SDS011;37380;45.186;9.792;2023-05-29T13:03:50;13.60;;;9.57;;
51296;SDS011;37380;45.186;9.792;2023-05-29T13:06:20;16.83;;;10.48;;
51296;SDS011;37380;45.186;9.792;2023-05-29T13:08:47;17.58;;;9.30;;
51296;SDS011;37380;45.186;9.792;2023-05-29T13:11:14;13.85;;;11.48;;
51296;SDS011;37380;45.186;9.792;2023-05-29T13:13:48;17.52;;;14.07;;
51296;SDS011;37380;45.186;9.792;2023-05-29T13:16:51;12.75;;;10.15;;
51296;SDS011;37380;45.186;9.792;2023-05-29T13:19:50;17.15;;;10.75;;
51296;SDS011;37380;45.186;9.792;2023-05-29T13:22:17;19.58;;;11.15;;
51296;SDS011;37380;45.186;9.792;2023-05-29T13:24:45;13.43;;;10.02;;
51296;SDS011;37380;45.186;9.792;2023-05-29T13:27:12;15.52;;;12.32;;
51296;SDS011;37380;45.186;9.792;2023-05-29T13:29:43;21.10;;;9.82;;
51296;SDS011;37380;45.186;9.792;2023-05-29T13:32:10;14.10;;;10.95;;
51296;SDS011;37380;45.186;9.792;2023-05-29T13:34:37;23.70;;;11.45;;
51296;SDS011;37380;45.186;9.792;2023-05-29T13:37:05;21.65;;;13.40;;
51296;SDS011;37380;45.186;9.792;2023-05-29T13:39:38;15.25;;;11.70;;
51296;SDS011;37380;45.186;9.792;2023-05-29T13:42:39;30.27;;;12.43;;
51296;SDS011;37380;45.186;9.792;2023-05-29T13:45:40;18.90;;;12.07;;
51296;SDS011;37380;45.186;9.792;2023-05-29T13:48:41;14.23;;;11.75;;
51296;SDS011;37380;45.186;9.792;2023-05-29T13:51:42;14.65;;;9.73;;
51296;SDS011;37380;45.186;9.792;2023-05-29T13:54:43;12.35;;;10.35;;
51296;SDS011;37380;45.186;9.792;2023-05-29T13:57:37;10.73;;;8.82;;
51296;SDS011;37380;45.186;9.792;2023-05-29T14:00:06;19.63;;;8.93;;
51296;SDS011;37380;45.186;9.792;2023-05-29T14:02:34;12.43;;;9.05;;
51296;SDS011;37380;45.186;9.792;2023-05-29T14:05:08;14.05;;;10.10;;
51296;SDS011;37380;45.186;9.792;2023-05-29T14:08:02;17.65;;;9.07;;
51296;SDS011;37380;45.186;9.792;2023-05-29T14:10:30;13.32;;;10.18;;
51296;SDS011;37380;45.186;9.792;2023-05-29T14:12:57;12.90;;;9.90;;
51296;SDS011;37380;45.186;9.792;2023-05-29T14:15:25;11.35;;;9.13;;
51296;SDS011;37380;45.186;9.792;2023-05-29T14:17:52;10.60;;;8.88;;
51296;SDS011;37380;45.186;9.792;2023-05-29T14:20:19;13.10;;;8.43;;
51296;SDS011;37380;45.186;9.792;2023-05-29T14:22:47;14.52;;;8.40;;
51296;SDS011;37380;45.186;9.792;2023-05-29T14:25:14;9.45;;;8.35;;
51296;SDS011;37380;45.186;9.792;2023-05-29T14:27:41;12.98;;;9.95;;
51296;SDS011;37380;45.186;9.792;2023-05-29T14:30:09;11.65;;;9.68;;
51296;SDS011;37380;45.186;9.792;2023-05-29T14:32:36;21.15;;;11.48;;
51296;SDS011;37380;45.186;9.792;2023-05-29T14:35:03;14.02;;;9.25;;
51296;SDS011;37380;45.186;9.792;2023-05-29T14:37:37;10.63;;;9.63;;
51296;SDS011;37380;45.186;9.792;2023-05-29T14:40:39;19.63;;;11.98;;
51296;SDS011;37380;45.186;9.792;2023-05-29T14:43:47;15.07;;;11.85;;
51296;SDS011;37380;45.186;9.792;2023-05-29T14:46:15;20.48;;;10.70;;
51296;SDS011;37380;45.186;9.792;2023-05-29T14:48:42;20.83;;;11.68;;
51296;SDS011;37380;45.186;9.792;2023-05-29T14:51:09;15.95;;;12.35;;
51296;SDS011;37380;45.186;9.792;2023-05-29T14:53:37;14.52;;;10.48;;
51296;SDS011;37380;45.186;9.792;2023-05-29T14:56:05;11.35;;;9.85;;
51296;SDS011;37380;45.186;9.792;2023-05-29T14:58:32;16.85;;;10.13;;
51296;SDS011;37380;45.186;9.792;2023-05-29T15:00:59;17.20;;;11.80;;
51296;SDS011;37380;45.186;9.792;2023-05-29T15:03:33;12.93;;;9.77;;
51296;SDS011;37380;45.186;9.792;2023-05-29T15:06:28;11.68;;;10.48;;
51296;SDS011;37380;45.186;9.792;2023-05-29T15:08:55;12.38;;;9.77;;
51296;SDS011;37380;45.186;9.792;2023-05-29T15:11:22;12.25;;;8.77;;
51296;SDS011;37380;45.186;9.792;2023-05-29T15:13:56;13.48;;;8.18;;
51296;SDS011;37380;45.186;9.792;2023-05-29T15:16:51;16.25;;;11.63;;
51296;SDS011;37380;45.186;9.792;2023-05-29T15:19:18;18.95;;;10.25;;
51296;SDS011;37380;45.186;9.792;2023-05-29T15:21:45;16.55;;;12.38;;
51296;SDS011;37380;45.186;9.792;2023-05-29T15:24:12;16.73;;;11.02;;
51296;SDS011;37380;45.186;9.792;2023-05-29T15:26:39;13.18;;;11.32;;
51296;SDS011;37380;45.186;9.792;2023-05-29T15:29:07;12.95;;;11.13;;
51296;SDS011;37380;45.186;9.792;2023-05-29T15:31:33;19.42;;;11.30;;
51296;SDS011;37380;45.186;9.792;2023-05-29T15:34:01;18.20;;;13.43;;
51296;SDS011;37380;45.186;9.792;2023-05-29T15:36:34;14.63;;;11.45;;
51296;SDS011;37380;45.186;9.792;2023-05-29T15:39:28;20.30;;;10.38;;
51296;SDS011;37380;45.186;9.792;2023-05-29T15:41:56;18.42;;;13.07;;